sensor_id;sensor_type;location;lat;lon;timestamp;pressure;altitude;pressure_sealevel;temperature;humidity
6942;BME280;3510;43.200;27.920;2023-03-18T00:00:59;101589.69;;;15.55;26.80
6942;BME280;3510;43.200;27.920;2023-03-18T00:03:28;101614.34;;;14.91;27.63
6942;BME280;3510;43.200;27.920;2023-03-18T00:06:02;101612.88;;;15.37;26.54
6942;BME280;3510;43.200;27.920;2023-03-18T00:08:44;101597.88;;;15.18;26.80
6942;BME280;3510;43.200;27.920;2023-03-18T00:11:24;101617.31;;;14.35;28.41
6942;BME280;3510;43.200;27.920;2023-03-18T00:13:53;101618.75;;;15.26;27.31
6942;BME280;3510;43.200;27.920;2023-03-18T00:16:33;101610.19;;;16.02;26.11
6942;BME280;3510;43.200;27.920;2023-03-18T00:19:01;101593.75;;;14.46;27.66
6942;BME280;3510;43.200;27.920;2023-03-18T00:21:31;101575.81;;;15.83;26.64
6942;BME280;3510;43.200;27.920;2023-03-18T00:24:12;101608.13;;;16.08;26.11
6942;BME280;3510;43.200;27.920;2023-03-18T00:26:53;101481.22;;;14.74;27.08
6942;BME280;3510;43.200;27.920;2023-03-18T00:29:21;101595.91;;;15.80;26.70
6942;BME280;3510;43.200;27.920;2023-03-18T00:31:49;101528.91;;;14.68;27.55
6942;BME280;3510;43.200;27.920;2023-03-18T00:34:30;101611.13;;;15.04;27.74
6942;BME280;3510;43.200;27.920;2023-03-18T00:36:57;101555.25;;;15.46;26.59
6942;BME280;3510;43.200;27.920;2023-03-18T00:39:25;101601.84;;;15.37;27.25
6942;BME280;3510;43.200;27.920;2023-03-18T00:42:06;101600.84;;;16.12;26.52
6942;BME280;3510;43.200;27.920;2023-03-18T00:44:38;101598.00;;;15.64;26.82
6942;BME280;3510;43.200;27.920;2023-03-18T00:47:05;101580.16;;;15.40;27.06
6942;BME280;3510;43.200;27.920;2023-03-18T00:49:32;101595.41;;;15.96;26.50
6942;BME280;3510;43.200;27.920;2023-03-18T00:51:59;101594.03;;;15.78;26.85
6942;BME280;3510;43.200;27.920;2023-03-18T00:54:26;101568.66;;;14.80;27.52
6942;BME280;3510;43.200;27.920;2023-03-18T00:56:53;101559.22;;;15.21;27.32
6942;BME280;3510;43.200;27.920;2023-03-18T00:59:21;101598.38;;;15.24;27.89
6942;BME280;3510;43.200;27.920;2023-03-18T01:01:49;101588.28;;;15.58;27.34
6942;BME280;3510;43.200;27.920;2023-03-18T01:04:16;101588.47;;;14.33;29.12
6942;BME280;3510;43.200;27.920;2023-03-18T01:06:43;101572.03;;;14.07;29.32
6942;BME280;3510;43.200;27.920;2023-03-18T01:09:10;101574.53;;;13.66;30.47
6942;BME280;3510;43.200;27.920;2023-03-18T01:11:38;101587.41;;;14.71;28.84
6942;BME280;3510;43.200;27.920;2023-03-18T01:14:05;101592.25;;;14.68;29.36
6942;BME280;3510;43.200;27.920;2023-03-18T01:16:33;101601.38;;;14.05;30.26
6942;BME280;3510;43.200;27.920;2023-03-18T01:19:03;101588.19;;;14.60;29.63
6942;BME280;3510;43.200;27.920;2023-03-18T01:21:30;101526.94;;;15.08;28.39
6942;BME280;3510;43.200;27.920;2023-03-18T01:23:57;101590.47;;;15.32;28.94
6942;BME280;3510;43.200;27.920;2023-03-18T01:26:25;101540.34;;;15.39;28.20
6942;BME280;3510;43.200;27.920;2023-03-18T01:28:52;101584.72;;;15.56;28.28
6942;BME280;3510;43.200;27.920;2023-03-18T01:31:19;101593.94;;;15.44;28.09
6942;BME280;3510;43.200;27.920;2023-03-18T01:33:46;101584.28;;;15.50;28.32
6942;BME280;3510;43.200;27.920;2023-03-18T01:36:14;101550.84;;;14.90;29.45
6942;BME280;3510;43.200;27.920;2023-03-18T01:38:42;101566.19;;;14.18;30.31
6942;BME280;3510;43.200;27.920;2023-03-18T01:41:09;101535.31;;;14.12;30.24
6942;BME280;3510;43.200;27.920;2023-03-18T01:43:39;101560.19;;;15.89;28.31
6942;BME280;3510;43.200;27.920;2023-03-18T01:46:28;101521.34;;;14.58;29.50
6942;BME280;3510;43.200;27.920;2023-03-18T01:48:56;101522.97;;;14.47;29.50
6942;BME280;3510;43.200;27.920;2023-03-18T01:51:26;101584.00;;;15.03;29.24
6942;BME280;3510;43.200;27.920;2023-03-18T01:53:55;101580.44;;;15.01;28.87
6942;BME280;3510;43.200;27.920;2023-03-18T01:56:23;101552.59;;;14.38;30.08
6942;BME280;3510;43.200;27.920;2023-03-18T01:58:53;101597.81;;;14.34;30.10
6942;BME280;3510;43.200;27.920;2023-03-18T02:01:26;101585.44;;;14.06;30.48
6942;BME280;3510;43.200;27.920;2023-03-18T02:03:56;101602.53;;;14.39;30.53
6942;BME280;3510;43.200;27.920;2023-03-18T02:06:25;101598.84;;;14.15;30.41
6942;BME280;3510;43.200;27.920;2023-03-18T02:08:54;101598.59;;;14.22;30.41
6942;BME280;3510;43.200;27.920;2023-03-18T02:11:22;101593.28;;;14.92;29.61
6942;BME280;3510;43.200;27.920;2023-03-18T02:13:49;101559.81;;;14.96;28.94
6942;BME280;3510;43.200;27.920;2023-03-18T02:16:17;101594.31;;;15.16;29.44
6942;BME280;3510;43.200;27.920;2023-03-18T02:18:46;101592.66;;;14.95;29.17
6942;BME280;3510;43.200;27.920;2023-03-18T02:21:18;101593.63;;;14.44;30.03
6942;BME280;3510;43.200;27.920;2023-03-18T02:23:55;101588.81;;;14.47;30.28
6942;BME280;3510;43.200;27.920;2023-03-18T02:26:32;101573.53;;;13.74;30.99
6942;BME280;3510;43.200;27.920;2023-03-18T02:29:04;101545.47;;;13.92;31.05
6942;BME280;3510;43.200;27.920;2023-03-18T02:31:33;101567.59;;;14.04;31.18
6942;BME280;3510;43.200;27.920;2023-03-18T02:34:05;101525.44;;;13.44;31.54
6942;BME280;3510;43.200;27.920;2023-03-18T02:36:34;101516.47;;;13.08;31.48
6942;BME280;3510;43.200;27.920;2023-03-18T02:39:03;101589.47;;;14.04;31.18
6942;BME280;3510;43.200;27.920;2023-03-18T02:41:32;101582.13;;;14.38;30.36
6942;BME280;3510;43.200;27.920;2023-03-18T02:44:03;101505.34;;;13.35;31.43
6942;BME280;3510;43.200;27.920;2023-03-18T02:46:34;101558.66;;;13.38;31.55
6942;BME280;3510;43.200;27.920;2023-03-18T02:49:05;101592.19;;;12.88;32.56
6942;BME280;3510;43.200;27.920;2023-03-18T02:51:34;101461.88;;;12.31;32.11
6942;BME280;3510;43.200;27.920;2023-03-18T02:54:05;101586.75;;;13.41;32.01
6942;BME280;3510;43.200;27.920;2023-03-18T02:56:32;101546.31;;;12.54;32.63
6942;BME280;3510;43.200;27.920;2023-03-18T02:58:59;101583.22;;;12.62;32.40
6942;BME280;3510;43.200;27.920;2023-03-18T03:01:27;101597.19;;;12.77;32.53
6942;BME280;3510;43.200;27.920;2023-03-18T03:03:54;101551.56;;;12.47;32.72
6942;BME280;3510;43.200;27.920;2023-03-18T03:06:22;101582.94;;;12.59;32.88
6942;BME280;3510;43.200;27.920;2023-03-18T03:08:50;101407.56;;;11.13;33.97
6942;BME280;3510;43.200;27.920;2023-03-18T03:11:31;101588.97;;;12.04;33.68
6942;BME280;3510;43.200;27.920;2023-03-18T03:13:58;101553.34;;;12.29;33.07
6942;BME280;3510;43.200;27.920;2023-03-18T03:16:27;101563.34;;;12.00;33.48
6942;BME280;3510;43.200;27.920;2023-03-18T03:18:54;101586.56;;;12.33;33.74
6942;BME280;3510;43.200;27.920;2023-03-18T03:21:20;101591.03;;;11.81;34.31
6942;BME280;3510;43.200;27.920;2023-03-18T03:23:47;101584.97;;;12.06;33.88
6942;BME280;3510;43.200;27.920;2023-03-18T03:26:27;101564.94;;;12.46;32.74
6942;BME280;3510;43.200;27.920;2023-03-18T03:28:55;101584.19;;;12.35;33.24
6942;BME280;3510;43.200;27.920;2023-03-18T03:31:23;101574.00;;;12.06;33.61
6942;BME280;3510;43.200;27.920;2023-03-18T03:33:52;101585.16;;;11.63;34.18
6942;BME280;3510;43.200;27.920;2023-03-18T03:36:23;101531.28;;;11.44;34.39
6942;BME280;3510;43.200;27.920;2023-03-18T03:38:51;101581.47;;;11.96;34.07
6942;BME280;3510;43.200;27.920;2023-03-18T03:41:28;101538.97;;;11.54;34.32
6942;BME280;3510;43.200;27.920;2023-03-18T03:43:55;101570.75;;;11.34;34.48
6942;BME280;3510;43.200;27.920;2023-03-18T03:46:23;101569.41;;;11.74;33.93
6942;BME280;3510;43.200;27.920;2023-03-18T03:48:49;101520.94;;;11.68;33.54
6942;BME280;3510;43.200;27.920;2023-03-18T03:51:17;101517.31;;;11.83;33.02
6942;BME280;3510;43.200;27.920;2023-03-18T03:53:45;101580.03;;;12.35;33.01
6942;BME280;3510;43.200;27.920;2023-03-18T03:56:19;101479.50;;;11.28;33.25
6942;BME280;3510;43.200;27.920;2023-03-18T03:58:46;101592.47;;;12.15;33.54
6942;BME280;3510;43.200;27.920;2023-03-18T04:01:14;101597.53;;;11.79;34.18
6942;BME280;3510;43.200;27.920;2023-03-18T04:03:42;101559.91;;;10.99;35.02
6942;BME280;3510;43.200;27.920;2023-03-18T04:06:08;101593.97;;;10.96;35.66
6942;BME280;3510;43.200;27.920;2023-03-18T04:08:37;101595.91;;;11.52;34.40
6942;BME280;3510;43.200;27.920;2023-03-18T04:11:18;101601.19;;;11.63;34.48
6942;BME280;3510;43.200;27.920;2023-03-18T04:13:46;101594.59;;;11.74;34.03
6942;BME280;3510;43.200;27.920;2023-03-18T04:16:13;101594.25;;;11.61;34.51
6942;BME280;3510;43.200;27.920;2023-03-18T04:18:41;101598.22;;;11.31;34.79
6942;BME280;3510;43.200;27.920;2023-03-18T04:21:08;101599.56;;;11.28;34.43
6942;BME280;3510;43.200;27.920;2023-03-18T04:23:35;101591.31;;;11.48;34.56
6942;BME280;3510;43.200;27.920;2023-03-18T04:38:57;101601.63;;;12.23;33.05
6942;BME280;3510;43.200;27.920;2023-03-18T04:41:25;101609.03;;;12.03;33.61
6942;BME280;3510;43.200;27.920;2023-03-18T04:43:51;101596.94;;;11.90;33.30
6942;BME280;3510;43.200;27.920;2023-03-18T04:46:18;101598.66;;;12.00;33.58
6942;BME280;3510;43.200;27.920;2023-03-18T04:48:45;101591.28;;;11.56;33.92
6942;BME280;3510;43.200;27.920;2023-03-18T04:51:12;101604.06;;;11.94;33.31
6942;BME280;3510;43.200;27.920;2023-03-18T04:53:40;101541.66;;;11.47;33.37
6942;BME280;3510;43.200;27.920;2023-03-18T04:56:09;101603.47;;;12.34;32.85
6942;BME280;3510;43.200;27.920;2023-03-18T04:58:37;101529.78;;;11.46;33.30
6942;BME280;3510;43.200;27.920;2023-03-18T05:01:03;101572.22;;;11.41;33.77
6942;BME280;3510;43.200;27.920;2023-03-18T05:03:30;101571.72;;;11.54;33.82
6942;BME280;3510;43.200;27.920;2023-03-18T05:05:57;101605.06;;;11.60;34.11
6942;BME280;3510;43.200;27.920;2023-03-18T05:08:25;101542.88;;;11.05;33.60
6942;BME280;3510;43.200;27.920;2023-03-18T05:10:56;101603.75;;;11.82;33.22
6942;BME280;3510;43.200;27.920;2023-03-18T05:13:24;101617.94;;;12.27;33.05
6942;BME280;3510;43.200;27.920;2023-03-18T05:15:51;101613.63;;;13.30;31.28
6942;BME280;3510;43.200;27.920;2023-03-18T05:18:18;101503.00;;;11.65;32.75
6942;BME280;3510;43.200;27.920;2023-03-18T05:20:45;101577.50;;;11.89;33.17
6942;BME280;3510;43.200;27.920;2023-03-18T05:23:13;101494.63;;;11.28;33.85
6942;BME280;3510;43.200;27.920;2023-03-18T05:25:41;101444.63;;;11.05;33.57
6942;BME280;3510;43.200;27.920;2023-03-18T05:28:07;101432.72;;;11.68;32.39
6942;BME280;3510;43.200;27.920;2023-03-18T05:30:36;101611.47;;;12.58;32.80
6942;BME280;3510;43.200;27.920;2023-03-18T05:33:04;101594.34;;;12.26;33.18
6942;BME280;3510;43.200;27.920;2023-03-18T05:35:32;101609.97;;;12.60;32.80
6942;BME280;3510;43.200;27.920;2023-03-18T05:37:58;101582.53;;;12.17;33.52
6942;BME280;3510;43.200;27.920;2023-03-18T05:40:25;101623.47;;;12.60;33.03
6942;BME280;3510;43.200;27.920;2023-03-18T05:42:53;101486.19;;;11.74;33.55
6942;BME280;3510;43.200;27.920;2023-03-18T05:45:20;101541.69;;;12.40;33.26
6942;BME280;3510;43.200;27.920;2023-03-18T05:47:48;101460.31;;;12.04;32.88
6942;BME280;3510;43.200;27.920;2023-03-18T05:50:17;101630.25;;;13.18;32.72
6942;BME280;3510;43.200;27.920;2023-03-18T05:52:50;101624.91;;;13.15;32.88
6942;BME280;3510;43.200;27.920;2023-03-18T05:55:18;101569.94;;;13.52;31.82
6942;BME280;3510;43.200;27.920;2023-03-18T05:57:44;101539.16;;;12.88;32.03
6942;BME280;3510;43.200;27.920;2023-03-18T06:00:13;101513.03;;;12.39;32.79
6942;BME280;3510;43.200;27.920;2023-03-18T06:02:43;101564.00;;;13.51;31.61
6942;BME280;3510;43.200;27.920;2023-03-18T06:05:13;101616.06;;;13.99;31.69
6942;BME280;3510;43.200;27.920;2023-03-18T06:07:54;101637.38;;;13.72;32.50
6942;BME280;3510;43.200;27.920;2023-03-18T06:10:22;101626.06;;;14.28;31.33
6942;BME280;3510;43.200;27.920;2023-03-18T06:12:50;101631.50;;;14.63;30.39
6942;BME280;3510;43.200;27.920;2023-03-18T06:15:17;101630.28;;;12.99;32.09
6942;BME280;3510;43.200;27.920;2023-03-18T06:17:46;101634.81;;;12.55;33.41
6942;BME280;3510;43.200;27.920;2023-03-18T06:20:27;101539.44;;;13.01;32.08
6942;BME280;3510;43.200;27.920;2023-03-18T06:22:54;101643.13;;;13.79;31.75
6942;BME280;3510;43.200;27.920;2023-03-18T06:25:22;101599.09;;;13.28;32.27
6942;BME280;3510;43.200;27.920;2023-03-18T06:27:58;101641.75;;;13.44;31.90
6942;BME280;3510;43.200;27.920;2023-03-18T06:30:25;101578.34;;;14.12;31.17
6942;BME280;3510;43.200;27.920;2023-03-18T06:32:53;101611.63;;;14.37;30.20
6942;BME280;3510;43.200;27.920;2023-03-18T06:35:23;101636.56;;;14.02;31.18
6942;BME280;3510;43.200;27.920;2023-03-18T06:37:52;101646.69;;;13.42;32.63
6942;BME280;3510;43.200;27.920;2023-03-18T06:40:20;101598.75;;;12.10;34.90
6942;BME280;3510;43.200;27.920;2023-03-18T06:42:49;101619.09;;;13.16;33.15
6942;BME280;3510;43.200;27.920;2023-03-18T06:45:16;101658.97;;;12.43;34.74
6942;BME280;3510;43.200;27.920;2023-03-18T06:47:43;101610.50;;;12.85;34.28
6942;BME280;3510;43.200;27.920;2023-03-18T06:50:11;101627.88;;;13.59;32.90
6942;BME280;3510;43.200;27.920;2023-03-18T06:52:45;101648.41;;;13.14;33.33
6942;BME280;3510;43.200;27.920;2023-03-18T06:55:14;101648.56;;;13.45;33.18
6942;BME280;3510;43.200;27.920;2023-03-18T06:57:41;101507.38;;;12.71;32.62
6942;BME280;3510;43.200;27.920;2023-03-18T07:00:10;101626.19;;;13.99;32.21
6942;BME280;3510;43.200;27.920;2023-03-18T07:02:38;101614.81;;;14.24;31.75
6942;BME280;3510;43.200;27.920;2023-03-18T07:05:05;101620.78;;;13.55;32.84
6942;BME280;3510;43.200;27.920;2023-03-18T07:07:33;101660.03;;;13.12;34.04
6942;BME280;3510;43.200;27.920;2023-03-18T07:10:07;101530.91;;;13.59;32.95
6942;BME280;3510;43.200;27.920;2023-03-18T07:12:36;101645.81;;;15.47;30.56
6942;BME280;3510;43.200;27.920;2023-03-18T07:15:03;101625.66;;;15.17;31.25
6942;BME280;3510;43.200;27.920;2023-03-18T07:17:29;101578.47;;;14.03;32.55
6942;BME280;3510;43.200;27.920;2023-03-18T07:19:58;101663.44;;;13.71;34.13
6942;BME280;3510;43.200;27.920;2023-03-18T07:22:39;101668.44;;;13.79;34.02
6942;BME280;3510;43.200;27.920;2023-03-18T07:25:08;101589.22;;;13.70;34.27
6942;BME280;3510;43.200;27.920;2023-03-18T07:27:35;101627.94;;;14.00;33.79
6942;BME280;3510;43.200;27.920;2023-03-18T07:30:04;101663.75;;;13.84;34.22
6942;BME280;3510;43.200;27.920;2023-03-18T07:32:31;101651.75;;;14.12;33.92
6942;BME280;3510;43.200;27.920;2023-03-18T07:34:59;101646.94;;;14.15;34.11
6942;BME280;3510;43.200;27.920;2023-03-18T07:37:29;101646.31;;;14.48;33.43
6942;BME280;3510;43.200;27.920;2023-03-18T07:39:56;101642.22;;;13.69;34.49
6942;BME280;3510;43.200;27.920;2023-03-18T07:42:24;101645.38;;;13.87;34.19
6942;BME280;3510;43.200;27.920;2023-03-18T07:44:51;101653.72;;;13.75;34.63
6942;BME280;3510;43.200;27.920;2023-03-18T07:47:17;101641.13;;;14.57;33.60
6942;BME280;3510;43.200;27.920;2023-03-18T07:49:45;101627.34;;;14.13;33.83
6942;BME280;3510;43.200;27.920;2023-03-18T07:52:13;101581.78;;;14.86;32.31
6942;BME280;3510;43.200;27.920;2023-03-18T07:54:40;101563.66;;;15.79;31.20
6942;BME280;3510;43.200;27.920;2023-03-18T07:57:07;101646.06;;;15.51;32.13
6942;BME280;3510;43.200;27.920;2023-03-18T07:59:35;101653.03;;;14.07;34.71
6942;BME280;3510;43.200;27.920;2023-03-18T08:02:03;101584.44;;;14.14;33.73
6942;BME280;3510;43.200;27.920;2023-03-18T08:04:32;101537.31;;;14.26;34.02
6942;BME280;3510;43.200;27.920;2023-03-18T08:06:59;101655.56;;;14.38;34.24
6942;BME280;3510;43.200;27.920;2023-03-18T08:09:27;101648.34;;;14.83;33.51
6942;BME280;3510;43.200;27.920;2023-03-18T08:11:54;101633.78;;;16.23;32.41
6942;BME280;3510;43.200;27.920;2023-03-18T08:14:21;101622.47;;;16.07;32.75
6942;BME280;3510;43.200;27.920;2023-03-18T08:16:50;101588.06;;;16.34;31.46
6942;BME280;3510;43.200;27.920;2023-03-18T08:19:21;101644.97;;;15.91;32.84
6942;BME280;3510;43.200;27.920;2023-03-18T08:21:48;101614.66;;;14.64;34.75
6942;BME280;3510;43.200;27.920;2023-03-18T08:24:16;101608.34;;;15.01;34.80
6942;BME280;3510;43.200;27.920;2023-03-18T08:26:43;101594.72;;;16.20;33.14
6942;BME280;3510;43.200;27.920;2023-03-18T08:29:12;101529.59;;;15.54;33.73
6942;BME280;3510;43.200;27.920;2023-03-18T08:31:39;101618.19;;;15.62;34.24
6942;BME280;3510;43.200;27.920;2023-03-18T08:34:07;101641.13;;;15.64;34.42
6942;BME280;3510;43.200;27.920;2023-03-18T08:36:35;101653.41;;;15.15;35.62
6942;BME280;3510;43.200;27.920;2023-03-18T08:39:02;101633.56;;;15.86;34.72
6942;BME280;3510;43.200;27.920;2023-03-18T08:41:30;101560.09;;;14.89;35.29
6942;BME280;3510;43.200;27.920;2023-03-18T08:43:58;101649.78;;;15.34;35.19
6942;BME280;3510;43.200;27.920;2023-03-18T08:46:24;101621.13;;;14.60;36.58
6942;BME280;3510;43.200;27.920;2023-03-18T08:48:51;101622.56;;;14.99;35.91
6942;BME280;3510;43.200;27.920;2023-03-18T08:51:21;101646.78;;;14.95;36.48
6942;BME280;3510;43.200;27.920;2023-03-18T08:53:48;101651.72;;;15.58;35.56
6942;BME280;3510;43.200;27.920;2023-03-18T08:56:14;101665.03;;;14.91;37.02
6942;BME280;3510;43.200;27.920;2023-03-18T08:58:43;101647.84;;;14.67;37.16
6942;BME280;3510;43.200;27.920;2023-03-18T09:01:22;101639.38;;;15.41;35.93
6942;BME280;3510;43.200;27.920;2023-03-18T09:03:49;101615.53;;;15.17;36.10
6942;BME280;3510;43.200;27.920;2023-03-18T09:06:17;101637.69;;;15.73;35.53
6942;BME280;3510;43.200;27.920;2023-03-18T09:08:46;101576.53;;;16.04;34.68
6942;BME280;3510;43.200;27.920;2023-03-18T09:11:13;101638.69;;;15.76;35.39
6942;BME280;3510;43.200;27.920;2023-03-18T09:13:40;101629.22;;;15.63;36.11
6942;BME280;3510;43.200;27.920;2023-03-18T09:16:07;101637.97;;;15.12;36.57
6942;BME280;3510;43.200;27.920;2023-03-18T09:18:37;101537.31;;;15.55;35.31
6942;BME280;3510;43.200;27.920;2023-03-18T09:21:05;101622.22;;;15.70;35.84
6942;BME280;3510;43.200;27.920;2023-03-18T09:23:32;101626.78;;;15.64;36.08
6942;BME280;3510;43.200;27.920;2023-03-18T09:26:01;101638.03;;;16.45;35.18
6942;BME280;3510;43.200;27.920;2023-03-18T09:28:28;101631.34;;;16.93;34.46
6942;BME280;3510;43.200;27.920;2023-03-18T09:30:55;101644.84;;;16.80;34.55
6942;BME280;3510;43.200;27.920;2023-03-18T09:33:22;101629.78;;;15.27;37.00
6942;BME280;3510;43.200;27.920;2023-03-18T09:35:49;101630.97;;;15.42;36.99
6942;BME280;3510;43.200;27.920;2023-03-18T09:38:29;101646.81;;;16.27;35.78
6942;BME280;3510;43.200;27.920;2023-03-18T09:41:01;101639.34;;;15.19;37.51
6942;BME280;3510;43.200;27.920;2023-03-18T09:52:17;101642.38;;;16.58;35.37
6942;BME280;3510;43.200;27.920;2023-03-18T09:54:48;101638.66;;;15.32;37.93
6942;BME280;3510;43.200;27.920;2023-03-18T09:57:19;101633.59;;;15.76;37.57
6942;BME280;3510;43.200;27.920;2023-03-18T10:00:03;101639.88;;;16.25;36.74
6942;BME280;3510;43.200;27.920;2023-03-18T10:02:34;101638.94;;;15.79;37.69
6942;BME280;3510;43.200;27.920;2023-03-18T10:05:03;101636.16;;;14.79;40.17
6942;BME280;3510;43.200;27.920;2023-03-18T10:07:39;101621.88;;;14.69;39.95
6942;BME280;3510;43.200;27.920;2023-03-18T10:10:10;101633.16;;;15.69;38.46
6942;BME280;3510;43.200;27.920;2023-03-18T10:12:56;101633.13;;;16.82;36.35
6942;BME280;3510;43.200;27.920;2023-03-18T10:15:29;101629.00;;;17.08;36.06
6942;BME280;3510;43.200;27.920;2023-03-18T10:17:58;101638.28;;;16.15;36.80
6942;BME280;3510;43.200;27.920;2023-03-18T10:20:30;101625.09;;;15.97;37.91
6942;BME280;3510;43.200;27.920;2023-03-18T10:23:08;101627.47;;;15.62;38.35
6942;BME280;3510;43.200;27.920;2023-03-18T10:25:39;101635.97;;;14.98;39.51
6942;BME280;3510;43.200;27.920;2023-03-18T10:31:07;101626.50;;;15.49;38.49
6942;BME280;3510;43.200;27.920;2023-03-18T10:33:41;101617.03;;;16.25;37.53
6942;BME280;3510;43.200;27.920;2023-03-18T10:36:12;101625.22;;;16.67;36.76
6942;BME280;3510;43.200;27.920;2023-03-18T10:41:30;101612.72;;;14.82;39.79
6942;BME280;3510;43.200;27.920;2023-03-18T10:44:01;101619.53;;;14.93;39.83
6942;BME280;3510;43.200;27.920;2023-03-18T10:46:29;101619.41;;;15.23;39.63
6942;BME280;3510;43.200;27.920;2023-03-18T10:49:11;101613.28;;;14.06;41.98
6942;BME280;3510;43.200;27.920;2023-03-18T10:51:56;101612.38;;;15.09;39.29
6942;BME280;3510;43.200;27.920;2023-03-18T10:54:27;101612.56;;;15.77;38.06
6942;BME280;3510;43.200;27.920;2023-03-18T10:56:59;101590.81;;;15.36;38.63
6942;BME280;3510;43.200;27.920;2023-03-18T10:59:26;101600.81;;;14.81;39.39
6942;BME280;3510;43.200;27.920;2023-03-18T11:01:56;101593.97;;;14.80;39.50
6942;BME280;3510;43.200;27.920;2023-03-18T11:04:24;101586.66;;;15.05;39.41
6942;BME280;3510;43.200;27.920;2023-03-18T11:06:55;101557.03;;;14.93;39.44
6942;BME280;3510;43.200;27.920;2023-03-18T11:09:37;101563.84;;;14.72;39.22
6942;BME280;3510;43.200;27.920;2023-03-18T11:12:14;101606.19;;;14.22;40.42
6942;BME280;3510;43.200;27.920;2023-03-18T11:14:46;101559.59;;;14.51;40.09
6942;BME280;3510;43.200;27.920;2023-03-18T11:17:19;101552.47;;;15.21;38.85
6942;BME280;3510;43.200;27.920;2023-03-18T11:19:48;101562.25;;;14.32;40.68
6942;BME280;3510;43.200;27.920;2023-03-18T11:22:30;101475.22;;;14.62;39.22
6942;BME280;3510;43.200;27.920;2023-03-18T11:25:13;101580.03;;;15.39;39.03
6942;BME280;3510;43.200;27.920;2023-03-18T11:27:44;101553.25;;;15.20;39.08
6942;BME280;3510;43.200;27.920;2023-03-18T11:30:16;101499.72;;;15.61;37.82
6942;BME280;3510;43.200;27.920;2023-03-18T11:32:52;101575.50;;;16.71;36.79
6942;BME280;3510;43.200;27.920;2023-03-18T11:35:21;101578.94;;;17.07;36.24
6942;BME280;3510;43.200;27.920;2023-03-18T11:37:49;101585.78;;;16.73;36.67
6942;BME280;3510;43.200;27.920;2023-03-18T11:40:17;101576.59;;;17.10;35.98
6942;BME280;3510;43.200;27.920;2023-03-18T11:42:46;101571.22;;;17.30;35.21
6942;BME280;3510;43.200;27.920;2023-03-18T11:45:21;101586.56;;;16.36;36.96
6942;BME280;3510;43.200;27.920;2023-03-18T11:47:52;101583.16;;;14.92;39.72
6942;BME280;3510;43.200;27.920;2023-03-18T11:50:20;101572.25;;;15.69;38.83
6942;BME280;3510;43.200;27.920;2023-03-18T11:52:49;101578.50;;;15.96;38.20
6942;BME280;3510;43.200;27.920;2023-03-18T11:55:22;101575.78;;;15.71;39.13
6942;BME280;3510;43.200;27.920;2023-03-18T11:58:06;101571.31;;;16.48;37.95
6942;BME280;3510;43.200;27.920;2023-03-18T12:00:36;101585.91;;;16.39;38.56
6942;BME280;3510;43.200;27.920;2023-03-18T12:03:17;101580.91;;;16.29;38.43
6942;BME280;3510;43.200;27.920;2023-03-18T12:08:32;101573.28;;;16.64;38.18
6942;BME280;3510;43.200;27.920;2023-03-18T12:11:03;101576.47;;;15.59;39.97
6942;BME280;3510;43.200;27.920;2023-03-18T12:13:39;101563.84;;;15.48;40.47
6942;BME280;3510;43.200;27.920;2023-03-18T12:16:12;101577.66;;;15.30;40.68
6942;BME280;3510;43.200;27.920;2023-03-18T12:18:46;101579.81;;;15.04;41.51
6942;BME280;3510;43.200;27.920;2023-03-18T12:21:22;101563.00;;;15.70;40.76
6942;BME280;3510;43.200;27.920;2023-03-18T12:23:57;101566.56;;;14.86;42.08
6942;BME280;3510;43.200;27.920;2023-03-18T12:26:33;101582.63;;;15.29;41.06
6942;BME280;3510;43.200;27.920;2023-03-18T12:29:16;101562.09;;;14.93;42.56
6942;BME280;3510;43.200;27.920;2023-03-18T12:31:49;101571.13;;;14.90;42.58
6942;BME280;3510;43.200;27.920;2023-03-18T12:34:22;101581.25;;;15.22;42.00
6942;BME280;3510;43.200;27.920;2023-03-18T12:36:54;101567.50;;;15.52;41.52
6942;BME280;3510;43.200;27.920;2023-03-18T12:42:14;101586.94;;;14.55;42.81
6942;BME280;3510;43.200;27.920;2023-03-18T12:44:46;101579.00;;;16.14;40.59
6942;BME280;3510;43.200;27.920;2023-03-18T12:47:22;101584.09;;;16.26;40.16
6942;BME280;3510;43.200;27.920;2023-03-18T12:49:51;101586.66;;;15.05;42.49
6942;BME280;3510;43.200;27.920;2023-03-18T12:52:24;101589.09;;;15.25;41.61
6942;BME280;3510;43.200;27.920;2023-03-18T12:54:58;101586.16;;;15.75;40.96
6942;BME280;3510;43.200;27.920;2023-03-18T12:57:30;101586.25;;;15.10;41.93
6942;BME280;3510;43.200;27.920;2023-03-18T12:59:59;101584.63;;;15.00;42.46
6942;BME280;3510;43.200;27.920;2023-03-18T13:02:34;101578.69;;;15.32;42.38
6942;BME280;3510;43.200;27.920;2023-03-18T13:05:02;101583.38;;;14.63;43.38
6942;BME280;3510;43.200;27.920;2023-03-18T13:07:45;101582.63;;;13.83;45.26
6942;BME280;3510;43.200;27.920;2023-03-18T13:10:28;101583.00;;;14.48;43.88
6942;BME280;3510;43.200;27.920;2023-03-18T13:13:12;101561.59;;;15.19;42.75
6942;BME280;3510;43.200;27.920;2023-03-18T13:42:39;101536.31;;;13.03;46.71
6942;BME280;3510;43.200;27.920;2023-03-18T13:45:17;101552.69;;;13.87;45.45
6942;BME280;3510;43.200;27.920;2023-03-18T13:47:54;101568.50;;;13.25;47.16
6942;BME280;3510;43.200;27.920;2023-03-18T13:50:29;101558.75;;;13.69;45.85
6942;BME280;3510;43.200;27.920;2023-03-18T13:52:58;101514.84;;;13.89;45.13
6942;BME280;3510;43.200;27.920;2023-03-18T13:55:30;101560.63;;;13.71;46.32
6942;BME280;3510;43.200;27.920;2023-03-18T13:58:19;101565.09;;;13.94;45.33
6942;BME280;3510;43.200;27.920;2023-03-18T14:03:58;101556.19;;;13.79;45.78
6942;BME280;3510;43.200;27.920;2023-03-18T14:06:45;101564.56;;;13.98;45.69
6942;BME280;3510;43.200;27.920;2023-03-18T14:12:19;101571.66;;;14.13;45.35
6942;BME280;3510;43.200;27.920;2023-03-18T14:14:56;101569.50;;;14.07;45.37
6942;BME280;3510;43.200;27.920;2023-03-18T14:17:42;101582.84;;;13.45;46.72
6942;BME280;3510;43.200;27.920;2023-03-18T14:20:27;101515.72;;;14.10;45.16
6942;BME280;3510;43.200;27.920;2023-03-18T14:26:19;101516.44;;;15.69;42.41